Time,TemperatureF,DewpointF,PressureIn,WindDirection,WindDirectionDegrees,WindSpeedMPH,WindSpeedGustMPH,Humidity,HourlyPrecipIn,Conditions,Clouds,dailyrainin,SolarRadiationWatts/m^2,SoftwareType,DateUTC
2013-03-23 00:12:00,26.0,22.0,-100.00,WNW,299,6.0,8.0,84,0.00,,,0.00,0.000000,,2013-03-23 07:12:00,
2013-03-23 00:22:00,26.0,22.0,-100.00,WNW,299,6.0,8.0,84,0.00,,,0.00,0.000000,,2013-03-23 07:22:00,
2013-03-23 00:32:00,26.0,22.0,-100.00,WNW,299,6.0,8.0,84,0.00,,,0.00,0.000000,,2013-03-23 07:32:00,
2013-03-23 00:42:00,26.0,22.0,-100.00,WNW,299,6.0,8.0,84,0.00,,,0.00,0.000000,,2013-03-23 07:42:00,
2013-03-23 01:12:00,25.0,21.0,-100.00,NW,310,6.0,8.0,84,0.00,,,0.00,0.000000,,2013-03-23 08:12:00,
2013-03-23 01:22:00,25.0,21.0,-100.00,NW,310,6.0,8.0,84,0.00,,,0.00,0.000000,,2013-03-23 08:22:00,
2013-03-23 01:32:00,25.0,21.0,-100.00,NW,310,6.0,8.0,84,0.00,,,0.00,0.000000,,2013-03-23 08:32:00,
2013-03-23 01:42:00,25.0,21.0,-100.00,NW,310,6.0,8.0,84,0.00,,,0.00,0.000000,,2013-03-23 08:42:00,
2013-03-23 02:12:00,24.0,20.0,-100.00,NW,315,6.0,8.0,85,0.00,,,0.00,0.000000,,2013-03-23 09:12:00,
2013-03-23 02:22:00,24.0,20.0,-100.00,NW,315,6.0,8.0,85,0.00,,,0.00,0.000000,,2013-03-23 09:22:00,
2013-03-23 02:32:00,24.0,20.0,-100.00,NW,315,6.0,8.0,85,0.00,,,0.00,0.000000,,2013-03-23 09:32:00,
2013-03-23 02:42:00,24.0,20.0,-100.00,NW,315,6.0,8.0,85,0.00,,,0.00,0.000000,,2013-03-23 09:42:00,
2013-03-23 03:12:00,24.0,19.0,-100.00,WNW,303,6.0,10.0,81,0.00,,,0.00,0.000000,,2013-03-23 10:12:00,
2013-03-23 03:23:00,24.0,19.0,-100.00,WNW,303,6.0,10.0,81,0.00,,,0.00,0.000000,,2013-03-23 10:23:00,
2013-03-23 03:33:00,24.0,19.0,-100.00,WNW,303,6.0,10.0,81,0.00,,,0.00,0.000000,,2013-03-23 10:33:00,
2013-03-23 03:42:00,24.0,19.0,-100.00,WNW,303,6.0,10.0,81,0.00,,,0.00,0.000000,,2013-03-23 10:42:00,
2013-03-23 04:12:00,25.0,19.0,-100.00,NW,326,5.0,9.0,79,0.00,,,0.00,0.000000,,2013-03-23 11:12:00,
2013-03-23 04:22:00,25.0,19.0,-100.00,NW,326,5.0,9.0,79,0.00,,,0.00,0.000000,,2013-03-23 11:22:00,
2013-03-23 04:32:00,25.0,19.0,-100.00,NW,326,5.0,9.0,79,0.00,,,0.00,0.000000,,2013-03-23 11:32:00,
2013-03-23 04:42:00,25.0,19.0,-100.00,NW,326,5.0,9.0,79,0.00,,,0.00,0.000000,,2013-03-23 11:42:00,
2013-03-23 05:12:00,24.0,19.0,-100.00,NW,309,7.0,8.0,82,0.00,,,0.00,0.000000,,2013-03-23 12:12:00,
2013-03-23 05:22:00,24.0,19.0,-100.00,NW,309,7.0,8.0,82,0.00,,,0.00,0.000000,,2013-03-23 12:22:00,
2013-03-23 05:33:00,24.0,19.0,-100.00,NW,309,7.0,8.0,82,0.00,,,0.00,0.000000,,2013-03-23 12:33:00,
2013-03-23 05:42:00,24.0,19.0,-100.00,NW,309,7.0,8.0,82,0.00,,,0.00,0.000000,,2013-03-23 12:42:00,
2013-03-23 06:12:00,23.0,19.0,-100.00,NW,316,6.0,7.0,83,0.00,,,0.00,0.000000,,2013-03-23 13:12:00,
2013-03-23 06:22:00,23.0,19.0,-100.00,NW,316,6.0,7.0,83,0.00,,,0.00,0.000000,,2013-03-23 13:22:00,
2013-03-23 06:32:00,23.0,19.0,-100.00,NW,316,6.0,7.0,83,0.00,,,0.00,0.000000,,2013-03-23 13:32:00,
2013-03-23 06:42:00,23.0,19.0,-100.00,NW,316,6.0,7.0,83,0.00,,,0.00,0.000000,,2013-03-23 13:42:00,
2013-03-23 07:12:00,23.0,19.0,-100.00,NNW,344,4.0,8.0,83,0.00,,,0.00,0.000000,,2013-03-23 14:12:00,
2013-03-23 07:22:00,23.0,19.0,-100.00,NNW,344,4.0,8.0,83,0.00,,,0.00,0.000000,,2013-03-23 14:22:00,
2013-03-23 07:32:00,23.0,19.0,-100.00,NNW,344,4.0,8.0,83,0.00,,,0.00,0.000000,,2013-03-23 14:32:00,
2013-03-23 07:42:00,23.0,19.0,-100.00,NNW,344,4.0,8.0,83,0.00,,,0.00,0.000000,,2013-03-23 14:42:00,
2013-03-23 08:12:00,27.0,21.0,-100.00,NW,313,4.0,7.0,79,0.00,,,0.00,7.000000,,2013-03-23 15:12:00,
2013-03-23 08:22:00,27.0,21.0,-100.00,NW,313,4.0,7.0,79,0.00,,,0.00,7.000000,,2013-03-23 15:22:00,
2013-03-23 08:33:00,27.0,21.0,-100.00,NW,313,4.0,7.0,79,0.00,,,0.00,7.000000,,2013-03-23 15:33:00,
2013-03-23 08:43:00,27.0,21.0,-100.00,NW,313,4.0,7.0,79,0.00,,,0.00,7.000000,,2013-03-23 15:43:00,
2013-03-23 09:12:00,30.0,22.0,-100.00,NNW,327,5.0,7.0,71,0.00,,,0.00,98.000000,,2013-03-23 16:12:00,
2013-03-23 09:22:00,30.0,22.0,-100.00,NNW,327,5.0,7.0,71,0.00,,,0.00,98.000000,,2013-03-23 16:22:00,
2013-03-23 09:32:00,30.0,22.0,-100.00,NNW,327,5.0,7.0,71,0.00,,,0.00,98.000000,,2013-03-23 16:32:00,
2013-03-23 09:42:00,30.0,22.0,-100.00,NNW,327,5.0,7.0,71,0.00,,,0.00,98.000000,,2013-03-23 16:42:00,
2013-03-23 10:12:00,33.0,21.0,-100.00,NNW,344,5.0,9.0,62,0.00,,,0.00,175.000000,,2013-03-23 17:12:00,
2013-03-23 10:22:00,33.0,21.0,-100.00,NNW,344,5.0,9.0,62,0.00,,,0.00,175.000000,,2013-03-23 17:22:00,
2013-03-23 10:32:00,33.0,21.0,-100.00,NNW,344,5.0,9.0,62,0.00,,,0.00,175.000000,,2013-03-23 17:32:00,
2013-03-23 10:42:00,33.0,21.0,-100.00,NNW,344,5.0,9.0,62,0.00,,,0.00,175.000000,,2013-03-23 17:42:00,
2013-03-23 11:12:00,37.0,20.0,-100.00,North,8,3.0,9.0,50,0.00,,,0.00,407.000000,,2013-03-23 18:12:00,
2013-03-23 11:22:00,37.0,20.0,-100.00,North,8,3.0,9.0,50,0.00,,,0.00,407.000000,,2013-03-23 18:22:00,
2013-03-23 11:32:00,37.0,20.0,-100.00,North,8,3.0,9.0,50,0.00,,,0.00,407.000000,,2013-03-23 18:32:00,
2013-03-23 11:42:00,37.0,20.0,-100.00,North,8,3.0,9.0,50,0.00,,,0.00,407.000000,,2013-03-23 18:42:00,
2013-03-23 12:12:00,39.0,18.0,-100.00,NNE,29,1.0,9.0,42,0.00,,,0.00,586.000000,,2013-03-23 19:12:00,
2013-03-23 12:22:00,39.0,18.0,-100.00,NNE,29,1.0,9.0,42,0.00,,,0.00,586.000000,,2013-03-23 19:22:00,
2013-03-23 12:32:00,39.0,18.0,-100.00,NNE,29,1.0,9.0,42,0.00,,,0.00,586.000000,,2013-03-23 19:32:00,
2013-03-23 12:42:00,39.0,18.0,-100.00,NNE,29,1.0,9.0,42,0.00,,,0.00,586.000000,,2013-03-23 19:42:00,
2013-03-23 13:12:00,39.0,18.0,-100.00,SSE,157,5.0,13.0,43,0.00,,,0.00,443.000000,,2013-03-23 20:12:00,
2013-03-23 13:22:00,39.0,18.0,-100.00,SSE,157,5.0,13.0,43,0.00,,,0.00,443.000000,,2013-03-23 20:22:00,
2013-03-23 13:32:00,39.0,18.0,-100.00,SSE,157,5.0,13.0,43,0.00,,,0.00,443.000000,,2013-03-23 20:32:00,
2013-03-23 13:42:00,39.0,18.0,-100.00,SSE,157,5.0,13.0,43,0.00,,,0.00,443.000000,,2013-03-23 20:42:00,
2013-03-23 14:12:00,41.0,17.0,-100.00,SSE,156,6.0,10.0,38,0.00,,,0.00,557.000000,,2013-03-23 21:12:00,
2013-03-23 14:22:00,41.0,17.0,-100.00,SSE,156,6.0,10.0,38,0.00,,,0.00,557.000000,,2013-03-23 21:22:00,
2013-03-23 14:32:00,41.0,17.0,-100.00,SSE,156,6.0,10.0,38,0.00,,,0.00,557.000000,,2013-03-23 21:32:00,
2013-03-23 14:42:00,41.0,17.0,-100.00,SSE,156,6.0,10.0,38,0.00,,,0.00,557.000000,,2013-03-23 21:42:00,
2013-03-23 15:12:00,42.0,18.0,-100.00,WNW,282,4.0,11.0,37,0.00,,,0.00,494.000000,,2013-03-23 22:12:00,
2013-03-23 15:23:00,42.0,18.0,-100.00,WNW,282,4.0,11.0,37,0.00,,,0.00,494.000000,,2013-03-23 22:23:00,
2013-03-23 15:32:00,42.0,18.0,-100.00,WNW,282,4.0,11.0,37,0.00,,,0.00,494.000000,,2013-03-23 22:32:00,
2013-03-23 15:42:00,42.0,18.0,-100.00,WNW,282,4.0,11.0,37,0.00,,,0.00,494.000000,,2013-03-23 22:42:00,
2013-03-23 16:12:00,41.0,17.0,-100.00,SSE,165,2.0,9.0,37,0.00,,,0.00,258.000000,,2013-03-23 23:12:00,
2013-03-23 16:22:00,41.0,17.0,-100.00,SSE,165,2.0,9.0,37,0.00,,,0.00,258.000000,,2013-03-23 23:22:00,
2013-03-23 16:32:00,41.0,17.0,-100.00,SSE,165,2.0,9.0,37,0.00,,,0.00,258.000000,,2013-03-23 23:32:00,
2013-03-23 16:42:00,41.0,17.0,-100.00,SSE,165,2.0,9.0,37,0.00,,,0.00,258.000000,,2013-03-23 23:42:00,
2013-03-23 17:12:00,40.0,17.0,-100.00,SE,133,6.0,8.0,39,0.00,,,0.00,173.000000,,2013-03-24 00:12:00,
2013-03-23 17:22:00,40.0,17.0,-100.00,SE,133,6.0,8.0,39,0.00,,,0.00,173.000000,,2013-03-24 00:22:00,
2013-03-23 17:32:00,40.0,17.0,-100.00,SE,133,6.0,8.0,39,0.00,,,0.00,173.000000,,2013-03-24 00:32:00,
2013-03-23 17:42:00,40.0,17.0,-100.00,SE,133,6.0,8.0,39,0.00,,,0.00,173.000000,,2013-03-24 00:42:00,
2013-03-23 18:12:00,44.0,17.0,-100.00,SW,218,4.0,10.0,33,0.00,,,0.00,300.000000,,2013-03-24 01:12:00,
2013-03-23 18:22:00,44.0,17.0,-100.00,SW,218,4.0,10.0,33,0.00,,,0.00,300.000000,,2013-03-24 01:22:00,
2013-03-23 18:32:00,44.0,17.0,-100.00,SW,218,4.0,10.0,33,0.00,,,0.00,300.000000,,2013-03-24 01:32:00,
2013-03-23 18:42:00,44.0,17.0,-100.00,SW,218,4.0,10.0,33,0.00,,,0.00,300.000000,,2013-03-24 01:42:00,
2013-03-23 19:12:00,36.0,18.0,-100.00,SSE,151,6.0,12.0,48,0.00,,,0.00,58.000000,,2013-03-24 02:12:00,
2013-03-23 19:22:00,36.0,18.0,-100.00,SSE,151,6.0,12.0,48,0.00,,,0.00,58.000000,,2013-03-24 02:22:00,
2013-03-23 19:32:00,36.0,18.0,-100.00,SSE,151,6.0,12.0,48,0.00,,,0.00,58.000000,,2013-03-24 02:32:00,
2013-03-23 19:42:00,36.0,18.0,-100.00,SSE,151,6.0,12.0,48,0.00,,,0.00,58.000000,,2013-03-24 02:42:00,
2013-03-23 20:12:00,33.0,19.0,-100.00,South,169,5.0,8.0,57,0.00,,,0.00,0.000000,,2013-03-24 03:12:00,
2013-03-23 20:22:00,33.0,19.0,-100.00,South,169,5.0,8.0,57,0.00,,,0.00,0.000000,,2013-03-24 03:22:00,
2013-03-23 20:33:00,33.0,19.0,-100.00,South,169,5.0,8.0,57,0.00,,,0.00,0.000000,,2013-03-24 03:33:00,
2013-03-23 20:42:00,33.0,19.0,-100.00,South,169,5.0,8.0,57,0.00,,,0.00,0.000000,,2013-03-24 03:42:00,
2013-03-23 21:12:00,32.0,20.0,-100.00,SE,135,6.0,7.0,61,0.00,,,0.00,0.000000,,2013-03-24 04:12:00,
2013-03-23 21:22:00,32.0,20.0,-100.00,SE,135,6.0,7.0,61,0.00,,,0.00,0.000000,,2013-03-24 04:22:00,
2013-03-23 21:32:00,32.0,20.0,-100.00,SE,135,6.0,7.0,61,0.00,,,0.00,0.000000,,2013-03-24 04:32:00,
2013-03-23 21:42:00,32.0,20.0,-100.00,SE,135,6.0,7.0,61,0.00,,,0.00,0.000000,,2013-03-24 04:42:00,
2013-03-23 22:12:00,31.0,18.0,-100.00,South,172,4.0,7.0,57,0.00,,,0.00,0.000000,,2013-03-24 05:12:00,
2013-03-23 22:22:00,31.0,18.0,-100.00,South,172,4.0,7.0,57,0.00,,,0.00,0.000000,,2013-03-24 05:22:00,
2013-03-23 22:32:00,31.0,18.0,-100.00,South,172,4.0,7.0,57,0.00,,,0.00,0.000000,,2013-03-24 05:32:00,
2013-03-23 22:42:00,31.0,18.0,-100.00,South,172,4.0,7.0,57,0.00,,,0.00,0.000000,,2013-03-24 05:42:00,
2013-03-23 23:12:00,29.0,17.0,-100.00,WSW,248,0.0,5.0,61,0.00,,,0.00,0.000000,,2013-03-24 06:12:00,
2013-03-23 23:22:00,29.0,17.0,-100.00,WSW,248,0.0,5.0,61,0.00,,,0.00,0.000000,,2013-03-24 06:22:00,
2013-03-23 23:32:00,29.0,17.0,-100.00,WSW,248,0.0,5.0,61,0.00,,,0.00,0.000000,,2013-03-24 06:32:00,
2013-03-23 23:42:00,29.0,17.0,-100.00,WSW,248,0.0,5.0,61,0.00,,,0.00,0.000000,,2013-03-24 06:42:00,